createdAt,value
2022-12-25T00:01:09.066Z,6.09
2022-12-25T00:03:47.389Z,6.08
2022-12-25T00:06:15.573Z,6.07
2022-12-25T00:08:43.908Z,6.07
2022-12-25T00:11:18.157Z,6.06
2022-12-25T00:13:47.561Z,6.06
2022-12-25T00:16:21.387Z,6.04
2022-12-25T00:18:51.366Z,6.02
2022-12-25T00:21:21.541Z,6.01
2022-12-25T00:23:55.072Z,5.99
2022-12-25T00:26:24.100Z,5.98
2022-12-25T00:28:57.610Z,5.97
2022-12-25T00:31:27.299Z,5.95
2022-12-25T00:33:55.555Z,5.93
2022-12-25T00:36:24.039Z,5.91
2022-12-25T00:38:52.325Z,5.88
2022-12-25T00:41:41.467Z,5.85
2022-12-25T00:44:12.923Z,5.82
2022-12-25T00:46:42.397Z,5.79
2022-12-25T00:49:11.749Z,5.75
2022-12-25T00:51:40.357Z,5.70
2022-12-25T00:54:08.664Z,5.67
2022-12-25T00:56:36.889Z,5.62
2022-12-25T00:59:05.137Z,5.59
2022-12-25T01:01:33.944Z,5.55
2022-12-25T01:04:02.238Z,5.51
2022-12-25T01:06:30.525Z,5.46
2022-12-25T01:09:17.533Z,5.42
2022-12-25T01:11:46.166Z,5.39
2022-12-25T01:14:14.489Z,5.36
2022-12-25T01:16:42.791Z,5.34
2022-12-25T01:19:11.195Z,5.32
2022-12-25T01:21:39.936Z,5.29
2022-12-25T01:24:08.387Z,5.23
2022-12-25T01:26:36.863Z,5.23
2022-12-25T01:29:05.016Z,5.22
2022-12-25T01:31:33.170Z,5.22
2022-12-25T01:34:01.190Z,5.22
2022-12-25T01:36:29.410Z,5.23
2022-12-25T01:38:57.505Z,5.24
2022-12-25T01:41:25.758Z,5.24
2022-12-25T01:44:05.248Z,5.24
2022-12-25T01:46:34.591Z,5.24
2022-12-25T01:49:16.153Z,5.25
2022-12-25T01:51:50.425Z,5.25
2022-12-25T01:54:25.300Z,5.25
2022-12-25T01:56:58.150Z,5.25
2022-12-25T01:59:27.564Z,5.25
2022-12-25T02:01:56.728Z,5.25
2022-12-25T02:04:40.633Z,5.24
2022-12-25T02:07:14.160Z,5.24
2022-12-25T02:09:42.951Z,5.25
2022-12-25T02:12:32.857Z,5.25
2022-12-25T02:15:13.960Z,5.23
2022-12-25T02:18:03.320Z,5.21
2022-12-25T02:21:09.211Z,5.19
2022-12-25T02:24:08.640Z,5.15
2022-12-25T02:26:49.189Z,5.10
2022-12-25T02:29:46.637Z,5.06
2022-12-25T02:32:32.847Z,5.02
2022-12-25T02:35:10.037Z,5.00
2022-12-25T02:37:57.481Z,4.99
2022-12-25T02:40:31.651Z,4.96
2022-12-25T02:43:22.798Z,4.94
2022-12-25T02:46:26.586Z,4.91
2022-12-25T02:49:21.370Z,4.87
2022-12-25T02:52:17.788Z,4.81
2022-12-25T02:55:12.461Z,4.74
2022-12-25T02:58:06.533Z,4.68
2022-12-25T03:00:58.808Z,4.62
2022-12-25T03:03:49.435Z,4.57
2022-12-25T03:06:38.528Z,4.51
2022-12-25T03:09:28.300Z,4.45
2022-12-25T03:12:06.254Z,4.39
2022-12-25T03:15:06.619Z,4.34
2022-12-25T03:17:35.815Z,4.29
2022-12-25T03:20:24.735Z,4.22
2022-12-25T03:23:13.027Z,4.16
2022-12-25T03:26:16.825Z,4.11
2022-12-25T03:28:44.969Z,4.05
2022-12-25T03:31:17.426Z,4.02
2022-12-25T03:34:22.902Z,3.99
2022-12-25T03:37:27.319Z,3.93
2022-12-25T03:40:26.011Z,3.88
2022-12-25T03:43:17.208Z,3.83
2022-12-25T03:46:10.417Z,3.76
2022-12-25T03:49:01.340Z,3.70
2022-12-25T03:51:53.623Z,3.64
2022-12-25T03:54:44.388Z,3.57
2022-12-25T03:57:32.735Z,3.53
2022-12-25T04:00:19.289Z,3.49
2022-12-25T04:03:05.959Z,3.45
2022-12-25T04:05:52.774Z,3.41
2022-12-25T04:08:39.143Z,3.36
2022-12-25T04:11:25.797Z,3.31
2022-12-25T04:14:12.521Z,3.26
2022-12-25T04:16:59.177Z,3.18
2022-12-25T04:19:45.761Z,3.10
2022-12-25T04:22:33.047Z,3.05
2022-12-25T04:25:19.701Z,2.98
2022-12-25T04:28:06.285Z,2.91
2022-12-25T04:30:52.861Z,2.84
2022-12-25T04:33:39.530Z,2.79
2022-12-25T04:36:13.966Z,2.74
2022-12-25T04:38:42.629Z,2.69
2022-12-25T04:41:12.845Z,2.67
2022-12-25T04:43:41.000Z,2.66
2022-12-25T04:46:09.030Z,2.63
2022-12-25T04:48:37.400Z,2.61
2022-12-25T04:51:17.910Z,2.59
2022-12-25T04:53:47.165Z,2.56
2022-12-25T04:56:16.394Z,2.54
2022-12-25T04:58:45.151Z,2.52
2022-12-25T05:01:13.558Z,2.50
2022-12-25T05:03:41.935Z,2.48
2022-12-25T05:06:10.433Z,2.45
2022-12-25T05:08:38.482Z,2.41
2022-12-25T05:11:12.091Z,2.38
2022-12-25T05:13:41.339Z,2.36
2022-12-25T05:16:15.510Z,2.36
2022-12-25T05:18:44.223Z,2.34
2022-12-25T05:21:12.970Z,2.34
2022-12-25T05:23:48.624Z,2.33
2022-12-25T05:26:20.182Z,2.33
2022-12-25T05:28:48.853Z,2.34
2022-12-25T05:31:17.801Z,2.34
2022-12-25T05:33:45.981Z,2.35
2022-12-25T05:36:14.176Z,2.37
2022-12-25T05:38:42.258Z,2.41
2022-12-25T05:41:10.404Z,2.42
2022-12-25T05:43:38.453Z,2.43
2022-12-25T05:46:08.894Z,2.41
2022-12-25T05:48:38.261Z,2.40
2022-12-25T05:51:08.725Z,2.40
2022-12-25T05:53:37.242Z,2.39
2022-12-25T05:56:07.220Z,2.38
2022-12-25T05:58:37.416Z,2.36
2022-12-25T06:01:16.495Z,2.33
2022-12-25T06:03:44.684Z,2.30
2022-12-25T06:06:13.229Z,2.28
2022-12-25T06:08:41.373Z,2.26
2022-12-25T06:11:10.627Z,2.26
2022-12-25T06:13:38.666Z,2.26
2022-12-25T06:16:09.048Z,2.29
2022-12-25T06:18:39.368Z,2.32
2022-12-25T06:21:12.597Z,2.39
2022-12-25T06:23:41.759Z,2.45
2022-12-25T06:26:14.752Z,2.53
2022-12-25T06:28:43.155Z,2.64
2022-12-25T06:31:17.780Z,2.73
2022-12-25T06:33:46.490Z,2.84
2022-12-25T06:36:16.541Z,2.92
2022-12-25T06:38:45.266Z,3.01
2022-12-25T06:41:22.499Z,3.10
2022-12-25T06:43:56.686Z,3.23
2022-12-25T06:46:26.763Z,3.36
2022-12-25T06:48:55.428Z,3.50
2022-12-25T06:51:26.967Z,3.67
2022-12-25T06:53:55.795Z,3.81
2022-12-25T06:56:28.707Z,3.92
2022-12-25T06:59:01.857Z,4.01
2022-12-25T07:01:38.202Z,4.08
2022-12-25T07:04:11.693Z,4.14
2022-12-25T07:06:40.009Z,4.17
2022-12-25T07:09:08.059Z,4.21
2022-12-25T07:11:36.270Z,4.26
2022-12-25T07:14:04.315Z,4.31
2022-12-25T07:16:32.600Z,4.37
2022-12-25T07:19:01.510Z,4.43
2022-12-25T07:21:29.665Z,4.48
2022-12-25T07:23:57.766Z,4.49
2022-12-25T07:26:25.856Z,4.50
2022-12-25T07:28:56.126Z,4.52
2022-12-25T07:31:24.332Z,4.57
2022-12-25T07:33:55.475Z,4.62
2022-12-25T07:36:23.531Z,4.69
2022-12-25T07:38:51.621Z,4.75
2022-12-25T07:41:19.739Z,4.80
2022-12-25T07:43:51.879Z,4.83
2022-12-25T07:46:21.503Z,4.86
2022-12-25T07:48:50.189Z,5.00
2022-12-25T07:51:18.550Z,5.25
2022-12-25T07:53:47.111Z,5.55
2022-12-25T07:56:17.914Z,5.86
2022-12-25T07:58:47.269Z,6.18
2022-12-25T08:01:22.596Z,6.48
2022-12-25T08:03:53.111Z,6.79
2022-12-25T08:06:23.091Z,7.14
2022-12-25T08:08:51.152Z,7.48
2022-12-25T08:11:19.299Z,7.68
2022-12-25T08:13:47.741Z,7.73
2022-12-25T08:16:16.271Z,7.73
2022-12-25T08:18:44.451Z,7.74
2022-12-25T08:21:14.809Z,7.71
2022-12-25T08:23:45.319Z,7.66
2022-12-25T08:26:17.749Z,7.62
2022-12-25T08:28:46.509Z,7.60
2022-12-25T08:31:19.601Z,7.57
2022-12-25T08:33:49.401Z,7.56
2022-12-25T08:36:18.847Z,7.55
2022-12-25T08:38:47.926Z,7.49
2022-12-25T08:41:17.156Z,7.44
2022-12-25T08:43:46.373Z,7.43
2022-12-25T08:46:14.831Z,7.44
2022-12-25T08:48:44.959Z,7.45
2022-12-25T08:51:16.501Z,7.46
2022-12-25T08:53:46.216Z,7.48
2022-12-25T08:56:15.364Z,7.50
2022-12-25T08:58:44.222Z,7.52
2022-12-25T09:01:13.346Z,7.59
2022-12-25T09:03:43.108Z,7.70
2022-12-25T09:06:14.156Z,7.89
2022-12-25T09:08:48.759Z,8.05
2022-12-25T09:11:19.801Z,8.18
2022-12-25T09:13:49.072Z,8.27
2022-12-25T09:16:20.480Z,8.36
2022-12-25T09:18:49.617Z,8.44
2022-12-25T09:21:19.023Z,8.50
2022-12-25T09:23:47.248Z,8.55
2022-12-25T09:26:18.132Z,8.58
2022-12-25T09:28:51.239Z,8.60
2022-12-25T09:31:22.786Z,8.62
2022-12-25T09:33:51.795Z,8.63
2022-12-25T09:36:23.402Z,8.64
2022-12-25T09:38:52.976Z,8.63
2022-12-25T09:41:34.135Z,8.65
2022-12-25T09:44:13.612Z,8.68
2022-12-25T09:47:02.030Z,8.74
2022-12-25T09:49:45.176Z,8.78
2022-12-25T09:52:19.577Z,8.78
2022-12-25T09:54:57.785Z,8.84
2022-12-25T09:57:26.570Z,8.91
2022-12-25T09:59:56.069Z,9.02
2022-12-25T10:02:46.223Z,9.13
2022-12-25T10:05:36.237Z,9.25
2022-12-25T10:08:25.225Z,9.39
2022-12-25T10:11:13.990Z,9.55
2022-12-25T10:13:48.822Z,9.69
2022-12-25T10:16:49.443Z,9.80
2022-12-25T10:19:25.872Z,9.92
2022-12-25T10:22:00.898Z,10.12
2022-12-25T10:24:36.100Z,10.40
2022-12-25T10:27:13.906Z,10.63
2022-12-25T10:29:46.502Z,10.97
2022-12-25T10:32:14.709Z,11.32
2022-12-25T10:34:43.794Z,11.72
2022-12-25T10:37:12.860Z,12.11
2022-12-25T10:39:46.682Z,12.38
2022-12-25T10:42:24.433Z,12.77
2022-12-25T10:45:01.416Z,13.24
2022-12-25T10:47:33.191Z,13.70
2022-12-25T10:50:18.612Z,14.04
2022-12-25T10:52:55.986Z,14.41
2022-12-25T10:55:28.844Z,14.59
2022-12-25T10:57:58.140Z,14.64
2022-12-25T11:00:28.762Z,14.53
2022-12-25T11:02:58.484Z,14.37
2022-12-25T11:05:31.324Z,14.29
2022-12-25T11:08:00.702Z,14.31
2022-12-25T11:10:38.217Z,14.42
2022-12-25T11:13:17.618Z,14.44
2022-12-25T11:15:49.574Z,14.51
2022-12-25T11:18:22.835Z,14.49
2022-12-25T11:21:02.641Z,14.32
2022-12-25T11:23:33.189Z,14.25
2022-12-25T11:26:07.719Z,14.18
2022-12-25T11:28:38.641Z,14.01
2022-12-25T11:31:36.601Z,13.94
2022-12-25T11:34:14.768Z,13.83
2022-12-25T11:36:49.504Z,13.70
2022-12-25T11:39:32.932Z,13.51
2022-12-25T11:42:40.095Z,13.28
2022-12-25T11:45:16.926Z,13.18
2022-12-25T11:47:46.482Z,13.24
2022-12-25T11:50:23.688Z,13.39
2022-12-25T11:52:53.468Z,13.48
2022-12-25T11:55:26.843Z,13.65
2022-12-25T11:58:03.250Z,13.94
2022-12-25T12:00:35.729Z,14.07
2022-12-25T12:03:14.507Z,14.03
2022-12-25T12:06:16.076Z,13.97
2022-12-25T12:08:52.320Z,13.89
2022-12-25T12:11:39.725Z,13.83
2022-12-25T12:14:24.790Z,13.69
2022-12-25T12:16:54.646Z,13.62
2022-12-25T12:19:30.657Z,13.55
2022-12-25T12:22:01.626Z,13.38
2022-12-25T12:24:39.240Z,13.10
2022-12-25T12:27:36.430Z,12.77
2022-12-25T12:30:05.851Z,12.36
2022-12-25T12:32:40.933Z,11.99
2022-12-25T12:35:23.640Z,11.68
2022-12-25T12:38:00.677Z,11.39
2022-12-25T12:40:36.777Z,11.18
2022-12-25T12:43:07.467Z,11.02
2022-12-25T12:45:37.889Z,10.90
2022-12-25T12:48:17.021Z,10.76
2022-12-25T12:50:45.307Z,10.66
2022-12-25T12:53:29.544Z,10.56
2022-12-25T12:56:18.804Z,10.46
2022-12-25T12:58:55.123Z,10.35
2022-12-25T13:01:40.550Z,10.27
2022-12-25T13:04:18.104Z,10.20
2022-12-25T13:07:19.192Z,10.09
2022-12-25T13:10:06.159Z,9.95
2022-12-25T13:12:34.373Z,9.81
2022-12-25T13:15:02.682Z,9.72
2022-12-25T13:17:31.008Z,9.67
2022-12-25T13:20:01.093Z,9.59
2022-12-25T13:22:34.752Z,9.46
2022-12-25T13:25:09.004Z,9.37
2022-12-25T13:27:37.217Z,9.30
2022-12-25T13:30:19.179Z,9.24
2022-12-25T13:32:49.313Z,9.16
2022-12-25T13:35:19.342Z,9.07
2022-12-25T13:37:48.597Z,8.96
2022-12-25T13:40:26.221Z,8.84
2022-12-25T13:42:59.712Z,8.71
2022-12-25T13:45:30.701Z,8.60
2022-12-25T13:48:15.119Z,8.52
2022-12-25T13:50:48.679Z,8.44
2022-12-25T13:53:18.183Z,8.37
2022-12-25T13:55:52.608Z,8.30
2022-12-25T13:58:33.686Z,8.23
2022-12-25T14:01:03.357Z,8.18
2022-12-25T14:03:46.268Z,8.13
2022-12-25T14:06:29.713Z,8.05
2022-12-25T14:08:59.726Z,7.96
2022-12-25T14:11:31.381Z,7.89
2022-12-25T14:14:03.347Z,7.81
2022-12-25T14:16:31.742Z,7.74
2022-12-25T14:19:03.651Z,7.65
2022-12-25T14:21:35.061Z,7.56
2022-12-25T14:24:03.362Z,7.48
2022-12-25T14:26:33.698Z,7.39
2022-12-25T14:29:04.991Z,7.31
2022-12-25T14:31:34.487Z,7.23
2022-12-25T14:34:07.476Z,7.14
2022-12-25T14:36:35.678Z,7.04
2022-12-25T14:39:06.947Z,6.96
2022-12-25T14:41:42.044Z,6.88
2022-12-25T14:44:34.589Z,6.78
2022-12-25T14:47:14.987Z,6.69
2022-12-25T14:49:43.406Z,6.58
2022-12-25T14:52:26.135Z,6.48
2022-12-25T14:55:01.352Z,6.38
2022-12-25T14:57:38.323Z,6.29
2022-12-25T15:00:20.452Z,6.21
2022-12-25T15:02:50.156Z,6.15
2022-12-25T15:05:27.523Z,6.07
2022-12-25T15:08:22.723Z,6.00
2022-12-25T15:11:01.038Z,5.91
2022-12-25T15:13:31.500Z,5.84
2022-12-25T15:16:06.374Z,5.77
2022-12-25T15:18:41.923Z,5.68
2022-12-25T15:21:30.772Z,5.61
2022-12-25T15:24:00.221Z,5.53
2022-12-25T15:26:30.212Z,5.46
2022-12-25T15:28:58.530Z,5.40
2022-12-25T15:31:29.416Z,5.32
2022-12-25T15:34:07.454Z,5.24
2022-12-25T15:36:35.577Z,5.16
2022-12-25T15:39:03.671Z,5.10
2022-12-25T15:41:54.232Z,5.05
2022-12-25T15:44:23.217Z,4.97
2022-12-25T15:46:51.880Z,4.89
2022-12-25T15:49:20.140Z,4.81
2022-12-25T15:51:48.390Z,4.75
2022-12-25T15:54:16.580Z,4.69
2022-12-25T15:56:50.978Z,4.61
2022-12-25T15:59:21.203Z,4.50
2022-12-25T16:01:52.606Z,4.37
2022-12-25T16:04:21.943Z,4.25
2022-12-25T16:06:50.999Z,4.15
2022-12-25T16:09:22.615Z,4.04
2022-12-25T16:11:51.014Z,3.96
2022-12-25T16:14:19.745Z,3.88
2022-12-25T16:16:47.852Z,3.80
2022-12-25T16:19:15.951Z,3.70
2022-12-25T16:21:46.380Z,3.60
2022-12-25T16:24:15.113Z,3.50
2022-12-25T16:26:44.065Z,3.40
2022-12-25T16:29:12.172Z,3.32
2022-12-25T16:31:41.308Z,3.24
2022-12-25T16:34:10.045Z,3.17
2022-12-25T16:36:39.238Z,3.11
2022-12-25T16:39:08.264Z,3.04
2022-12-25T16:41:36.269Z,2.97
2022-12-25T16:44:10.238Z,2.91
2022-12-25T16:46:40.019Z,2.84
2022-12-25T16:49:08.797Z,2.79
2022-12-25T16:51:36.893Z,2.74
2022-12-25T16:54:05.066Z,2.70
2022-12-25T16:56:33.231Z,2.66
2022-12-25T16:59:03.036Z,2.63
2022-12-25T17:01:31.386Z,2.59
2022-12-25T17:04:02.956Z,2.55
2022-12-25T17:06:32.220Z,2.52
2022-12-25T17:09:02.367Z,2.49
2022-12-25T17:11:31.335Z,2.45
2022-12-25T17:14:02.796Z,2.42
2022-12-25T17:16:34.069Z,2.38
2022-12-25T17:19:05.205Z,2.36
2022-12-25T17:21:34.354Z,2.33
2022-12-25T17:24:04.142Z,2.30
2022-12-25T17:26:33.230Z,2.26
2022-12-25T17:29:01.465Z,2.24
2022-12-25T17:31:30.032Z,2.20
2022-12-25T17:34:00.542Z,2.17
2022-12-25T17:36:29.292Z,2.12
2022-12-25T17:39:00.864Z,2.08
2022-12-25T17:41:29.200Z,2.05
2022-12-25T17:43:57.296Z,2.02
2022-12-25T17:46:28.435Z,1.97
2022-12-25T17:48:58.776Z,1.93
2022-12-25T17:51:28.450Z,1.90
2022-12-25T17:54:03.201Z,1.86
2022-12-25T17:56:32.548Z,1.83
2022-12-25T17:59:08.229Z,1.78
2022-12-25T18:01:38.587Z,1.75
2022-12-25T18:04:06.981Z,1.71
2022-12-25T18:06:36.944Z,1.64
2022-12-25T18:09:06.443Z,1.60
2022-12-25T18:11:42.009Z,1.55
2022-12-25T18:14:14.175Z,1.50
2022-12-25T18:16:45.035Z,1.47
2022-12-25T18:19:18.449Z,1.46
2022-12-25T18:21:46.617Z,1.46
2022-12-25T18:24:14.866Z,1.47
2022-12-25T18:26:43.121Z,1.46
2022-12-25T18:29:11.661Z,1.45
2022-12-25T18:31:39.814Z,1.42
2022-12-25T18:34:08.072Z,1.40
2022-12-25T18:36:37.013Z,1.38
2022-12-25T18:39:05.306Z,1.36
2022-12-25T18:41:53.511Z,1.35
2022-12-25T18:44:21.652Z,1.31
2022-12-25T18:46:49.691Z,1.28
2022-12-25T18:49:17.804Z,1.25
2022-12-25T18:51:45.930Z,1.21
2022-12-25T18:54:14.193Z,1.17
2022-12-25T18:56:42.370Z,1.13
2022-12-25T18:59:12.327Z,1.09
2022-12-25T19:01:40.858Z,1.05
2022-12-25T19:04:12.710Z,1.01
2022-12-25T19:06:40.815Z,0.96
2022-12-25T19:09:12.259Z,0.93
2022-12-25T19:11:46.611Z,0.89
2022-12-25T19:14:16.629Z,0.85
2022-12-25T19:16:45.091Z,0.80
2022-12-25T19:19:14.784Z,0.76
2022-12-25T19:21:42.814Z,0.73
2022-12-25T19:24:10.915Z,0.70
2022-12-25T19:26:39.043Z,0.66
2022-12-25T19:29:07.203Z,0.62
2022-12-25T19:31:35.502Z,0.58
2022-12-25T19:34:04.258Z,0.54
2022-12-25T19:36:32.537Z,0.51
2022-12-25T19:39:01.030Z,0.46
2022-12-25T19:41:29.276Z,0.42
2022-12-25T19:43:57.337Z,0.39
2022-12-25T19:46:32.047Z,0.35
2022-12-25T19:49:07.880Z,0.30
2022-12-25T19:51:40.095Z,0.27
2022-12-25T19:54:11.220Z,0.24
2022-12-25T19:56:39.664Z,0.21
2022-12-25T19:59:08.424Z,0.17
2022-12-25T20:01:36.675Z,0.12
2022-12-25T20:04:08.111Z,0.08
2022-12-25T20:06:38.951Z,0.05
2022-12-25T20:09:10.934Z,0.01
2022-12-25T20:11:40.101Z,-0.02
2022-12-25T20:14:08.619Z,-0.06
2022-12-25T20:16:38.160Z,-0.09
2022-12-25T20:19:07.292Z,-0.10
2022-12-25T20:21:35.339Z,-0.14
2022-12-25T20:24:03.631Z,-0.17
2022-12-25T20:26:32.306Z,-0.20
2022-12-25T20:29:00.396Z,-0.22
2022-12-25T20:31:31.299Z,-0.25
2022-12-25T20:34:04.969Z,-0.28
2022-12-25T20:36:37.253Z,-0.31
2022-12-25T20:39:10.152Z,-0.33
2022-12-25T20:41:40.568Z,-0.37
2022-12-25T20:44:10.510Z,-0.41
2022-12-25T20:46:39.002Z,-0.44
2022-12-25T20:49:07.429Z,-0.48
2022-12-25T20:51:35.759Z,-0.51
2022-12-25T20:54:12.797Z,-0.53
2022-12-25T20:56:40.952Z,-0.56
2022-12-25T20:59:09.459Z,-0.58
2022-12-25T21:01:37.681Z,-0.60
2022-12-25T21:04:05.961Z,-0.62
2022-12-25T21:06:34.113Z,-0.64
2022-12-25T21:09:02.146Z,-0.66
2022-12-25T21:11:31.437Z,-0.68
2022-12-25T21:13:59.637Z,-0.68
2022-12-25T21:16:28.590Z,-0.70
2022-12-25T21:18:56.909Z,-0.71
2022-12-25T21:21:25.240Z,-0.71
2022-12-25T21:23:57.094Z,-0.72
2022-12-25T21:26:28.165Z,-0.73
2022-12-25T21:29:00.334Z,-0.76
2022-12-25T21:31:30.238Z,-0.79
2022-12-25T21:33:58.373Z,-0.80
2022-12-25T21:36:33.816Z,-0.82
2022-12-25T21:39:05.662Z,-0.84
2022-12-25T21:41:36.679Z,-0.86
2022-12-25T21:44:05.575Z,-0.87
2022-12-25T21:46:34.307Z,-0.87
2022-12-25T21:49:02.559Z,-0.87
2022-12-25T21:51:52.033Z,-0.87
2022-12-25T21:54:22.379Z,-0.88
2022-12-25T21:56:50.695Z,-0.87
2022-12-25T21:59:21.447Z,-0.87
2022-12-25T22:01:51.908Z,-0.87
2022-12-25T22:04:22.888Z,-0.86
2022-12-25T22:07:09.649Z,-0.87
2022-12-25T22:09:37.910Z,-0.87
2022-12-25T22:12:30.246Z,-0.88
2022-12-25T22:15:06.544Z,-0.87
2022-12-25T22:17:56.890Z,-0.88
2022-12-25T22:20:30.946Z,-0.91
2022-12-25T22:22:59.025Z,-0.93
2022-12-25T22:25:27.143Z,-0.95
2022-12-25T22:27:55.545Z,-0.97
2022-12-25T22:30:26.900Z,-1.01
2022-12-25T22:32:55.498Z,-1.05
2022-12-25T22:35:24.279Z,-1.05
2022-12-25T22:37:54.194Z,-1.08
2022-12-25T22:40:22.431Z,-1.09
2022-12-25T22:42:55.525Z,-1.11
2022-12-25T22:45:24.460Z,-1.16
2022-12-25T22:47:52.586Z,-1.19
2022-12-25T22:50:20.746Z,-1.22
2022-12-25T22:52:48.906Z,-1.23
2022-12-25T22:55:19.175Z,-1.24
2022-12-25T22:57:49.125Z,-1.26
2022-12-25T23:00:17.480Z,-1.29
2022-12-25T23:02:45.984Z,-1.33
2022-12-25T23:05:14.479Z,-1.37
2022-12-25T23:07:42.671Z,-1.40
2022-12-25T23:10:10.902Z,-1.42
2022-12-25T23:12:57.533Z,-1.43
2022-12-25T23:15:27.775Z,-1.44
2022-12-25T23:18:14.460Z,-1.48
2022-12-25T23:21:01.175Z,-1.53
2022-12-25T23:23:47.767Z,-1.57
2022-12-25T23:26:18.436Z,-1.65
2022-12-25T23:29:05.603Z,-1.71
2022-12-25T23:31:39.894Z,-1.76
2022-12-25T23:34:10.437Z,-1.82
2022-12-25T23:36:38.569Z,-1.89
2022-12-25T23:39:10.432Z,-1.98
2022-12-25T23:41:40.531Z,-2.03
2022-12-25T23:44:11.052Z,-2.08
2022-12-25T23:46:40.371Z,-2.10
2022-12-25T23:49:09.462Z,-2.12
2022-12-25T23:51:39.859Z,-2.14
2022-12-25T23:54:08.198Z,-2.17
2022-12-25T23:56:36.878Z,-2.22
2022-12-25T23:59:06.012Z,-2.25
